createdAt,value
2018-02-15T00:00:48.651Z,-2.97
2018-02-15T00:01:54.780Z,-2.96
2018-02-15T00:03:00.657Z,-2.92
2018-02-15T00:04:06.567Z,-2.96
2018-02-15T00:05:12.743Z,-2.91
2018-02-15T00:06:18.912Z,-2.98
2018-02-15T00:07:25.125Z,-2.93
2018-02-15T00:08:31.337Z,-3.00
2018-02-15T00:09:37.560Z,-3.10
2018-02-15T00:10:43.681Z,-3.09
2018-02-15T00:11:57.886Z,-3.16
2018-02-15T00:13:03.981Z,-3.28
2018-02-15T00:14:10.158Z,-3.29
2018-02-15T00:15:16.372Z,-3.27
2018-02-15T00:16:22.627Z,-3.19
2018-02-15T00:17:29.037Z,-3.22
2018-02-15T00:18:35.267Z,-3.33
2018-02-15T00:19:41.493Z,-3.25
2018-02-15T00:20:47.629Z,-3.29
2018-02-15T00:21:53.515Z,-3.32
2018-02-15T00:22:59.666Z,-3.33
2018-02-15T00:24:05.831Z,-3.38
2018-02-15T00:25:12.091Z,-3.42
2018-02-15T00:26:18.375Z,-3.45
2018-02-15T00:27:24.811Z,-3.45
2018-02-15T00:28:30.999Z,-3.53
2018-02-15T00:29:37.225Z,-3.50
2018-02-15T00:30:48.249Z,-3.59
2018-02-15T00:31:54.432Z,-3.50
2018-02-15T00:33:00.323Z,-3.62
2018-02-15T00:34:06.145Z,-3.70
2018-02-15T00:35:12.342Z,-3.63
2018-02-15T00:36:18.467Z,-3.70
2018-02-15T00:37:24.650Z,-3.69
2018-02-15T00:38:30.851Z,-3.67
2018-02-15T00:39:36.838Z,-3.61
2018-02-15T00:40:43.050Z,-3.58
2018-02-15T00:41:49.246Z,-3.53
2018-02-15T00:42:55.134Z,-3.52
2018-02-15T00:44:01.256Z,-3.53
2018-02-15T00:45:07.500Z,-3.58
2018-02-15T00:46:13.671Z,-3.65
2018-02-15T00:47:19.884Z,-3.61
2018-02-15T00:48:26.074Z,-3.58
2018-02-15T00:49:32.270Z,-3.66
2018-02-15T00:50:38.443Z,-3.59
2018-02-15T00:51:44.603Z,-3.65
2018-02-15T00:52:50.803Z,-3.58
2018-02-15T00:53:56.652Z,-3.56
2018-02-15T00:55:02.945Z,-3.53
2018-02-15T00:56:09.283Z,-3.52
2018-02-15T00:57:15.458Z,-3.45
2018-02-15T00:58:21.695Z,-3.36
2018-02-15T00:59:27.832Z,-3.31
2018-02-15T01:00:37.011Z,-3.15
2018-02-15T01:01:43.220Z,-3.06
2018-02-15T01:02:49.368Z,-3.02
2018-02-15T01:03:55.502Z,-2.96
2018-02-15T01:05:01.407Z,-2.99
2018-02-15T01:06:07.644Z,-2.99
2018-02-15T01:07:16.446Z,-3.01
2018-02-15T01:08:22.700Z,-3.03
2018-02-15T01:09:28.903Z,-2.96
2018-02-15T01:10:35.147Z,-2.94
2018-02-15T01:11:40.990Z,-2.93
2018-02-15T01:12:47.144Z,-2.86
2018-02-15T01:13:53.313Z,-2.85
2018-02-15T01:14:59.438Z,-2.78
2018-02-15T01:16:10.099Z,-2.69
2018-02-15T01:17:16.059Z,-2.66
2018-02-15T01:18:22.261Z,-2.71
2018-02-15T01:19:28.472Z,-2.73
2018-02-15T01:20:34.656Z,-2.73
2018-02-15T01:21:40.899Z,-2.72
2018-02-15T01:22:47.128Z,-2.81
2018-02-15T01:23:53.335Z,-2.79
2018-02-15T01:24:59.471Z,-2.77
2018-02-15T01:26:06.086Z,-2.78
2018-02-15T01:27:13.506Z,-2.88
2018-02-15T01:28:19.684Z,-2.95
2018-02-15T01:29:25.695Z,-2.99
2018-02-15T01:30:31.818Z,-2.99
2018-02-15T01:31:38.000Z,-3.05
2018-02-15T01:32:44.190Z,-3.05
2018-02-15T01:33:50.330Z,-3.00
2018-02-15T01:34:56.205Z,-2.96
2018-02-15T01:36:02.443Z,-3.14
2018-02-15T01:37:09.557Z,-3.16
2018-02-15T01:38:15.714Z,-3.23
2018-02-15T01:39:21.850Z,-3.24
2018-02-15T01:40:28.162Z,-3.21
2018-02-15T01:41:34.447Z,-3.27
2018-02-15T01:42:40.659Z,-3.29
2018-02-15T01:43:46.873Z,-3.36
2018-02-15T01:44:53.040Z,-3.40
2018-02-15T01:45:59.278Z,-3.31
2018-02-15T01:47:05.465Z,-3.36
2018-02-15T01:48:11.680Z,-3.42
2018-02-15T01:49:17.868Z,-3.41
2018-02-15T01:50:24.095Z,-3.43
2018-02-15T01:51:30.358Z,-3.47
2018-02-15T01:52:36.744Z,-3.55
2018-02-15T01:53:42.878Z,-3.57
2018-02-15T01:54:49.092Z,-3.57
2018-02-15T01:55:56.083Z,-3.47
2018-02-15T01:57:02.262Z,-3.50
2018-02-15T01:58:08.405Z,-3.47
2018-02-15T01:59:14.602Z,-3.49
2018-02-15T02:00:20.787Z,-3.49
2018-02-15T02:01:25.694Z,-3.44
2018-02-15T02:02:31.917Z,-3.51
2018-02-15T02:03:38.090Z,-3.50
2018-02-15T02:04:44.281Z,-3.36
2018-02-15T02:05:50.456Z,-3.42
2018-02-15T02:06:56.623Z,-3.53
2018-02-15T02:08:02.791Z,-3.46
2018-02-15T02:09:08.992Z,-3.51
2018-02-15T02:10:16.082Z,-3.61
2018-02-15T02:11:22.255Z,-3.55
2018-02-15T02:12:28.403Z,-3.54
2018-02-15T02:13:34.548Z,-3.54
2018-02-15T02:14:40.712Z,-3.49
2018-02-15T02:15:46.897Z,-3.46
2018-02-15T02:16:53.108Z,-3.50
2018-02-15T02:17:59.272Z,-3.50
2018-02-15T02:19:05.463Z,-3.50
2018-02-15T02:20:11.659Z,-3.45
2018-02-15T02:21:17.848Z,-3.44
2018-02-15T02:22:23.796Z,-3.47
2018-02-15T02:23:29.997Z,-3.56
2018-02-15T02:24:36.158Z,-3.51
2018-02-15T02:25:42.392Z,-3.58
2018-02-15T02:26:48.557Z,-3.59
2018-02-15T02:27:54.778Z,-3.58
2018-02-15T02:29:00.917Z,-3.56
2018-02-15T02:30:07.165Z,-3.58
2018-02-15T02:31:13.379Z,-3.62
2018-02-15T02:32:19.699Z,-3.71
2018-02-15T02:33:25.869Z,-3.71
2018-02-15T02:34:32.062Z,-3.73
2018-02-15T02:35:38.285Z,-3.74
2018-02-15T02:36:44.490Z,-3.77
2018-02-15T02:37:50.749Z,-3.73
2018-02-15T02:38:56.900Z,-3.73
2018-02-15T02:40:03.092Z,-3.67
2018-02-15T02:41:09.343Z,-3.77
2018-02-15T02:42:15.500Z,-3.76
2018-02-15T02:43:22.380Z,-3.79
2018-02-15T02:44:28.535Z,-3.75
2018-02-15T02:45:34.761Z,-3.84
2018-02-15T02:46:40.951Z,-3.76
2018-02-15T02:47:47.122Z,-3.81
2018-02-15T02:48:53.640Z,-3.79
2018-02-15T02:49:59.787Z,-3.77
2018-02-15T02:51:05.958Z,-3.74
2018-02-15T02:52:12.109Z,-3.79
2018-02-15T02:53:18.284Z,-3.81
2018-02-15T02:54:24.471Z,-3.91
2018-02-15T02:55:30.633Z,-3.96
2018-02-15T02:56:36.887Z,-3.89
2018-02-15T02:57:43.049Z,-3.83
2018-02-15T02:58:49.254Z,-3.77
2018-02-15T02:59:55.476Z,-3.85
2018-02-15T03:01:02.656Z,-3.93
2018-02-15T03:02:08.865Z,-3.89
2018-02-15T03:03:15.106Z,-3.89
2018-02-15T03:04:21.269Z,-3.93
2018-02-15T03:05:27.383Z,-3.87
2018-02-15T03:06:33.554Z,-3.83
2018-02-15T03:07:39.792Z,-3.72
2018-02-15T03:08:45.353Z,-3.68
2018-02-15T03:09:51.581Z,-3.69
2018-02-15T03:10:58.245Z,-3.64
2018-02-15T03:12:04.432Z,-3.73
2018-02-15T03:13:10.624Z,-3.67
2018-02-15T03:14:16.810Z,-3.69
2018-02-15T03:15:23.004Z,-3.58
2018-02-15T03:16:29.177Z,-3.54
2018-02-15T03:17:35.366Z,-3.51
2018-02-15T03:18:41.734Z,-3.44
2018-02-15T03:19:47.900Z,-3.40
2018-02-15T03:20:54.046Z,-3.51
2018-02-15T03:22:00.239Z,-3.52
2018-02-15T03:23:06.474Z,-3.51
2018-02-15T03:24:12.642Z,-3.50
2018-02-15T03:25:21.894Z,-3.53
2018-02-15T03:26:28.101Z,-3.47
2018-02-15T03:27:39.015Z,-3.41
2018-02-15T03:28:45.177Z,-3.38
2018-02-15T03:29:51.366Z,-3.37
2018-02-15T03:30:57.543Z,-3.31
2018-02-15T03:32:03.727Z,-3.33
2018-02-15T03:33:09.969Z,-3.37
2018-02-15T03:34:16.141Z,-3.26
2018-02-15T03:35:22.322Z,-3.22
2018-02-15T03:36:28.529Z,-3.29
2018-02-15T03:37:34.769Z,-3.20
2018-02-15T03:38:41.031Z,-3.13
2018-02-15T03:39:47.296Z,-3.16
2018-02-15T03:40:53.221Z,-3.19
2018-02-15T03:41:59.395Z,-3.22
2018-02-15T03:43:05.634Z,-3.23
2018-02-15T03:44:11.941Z,-3.23
2018-02-15T03:45:18.108Z,-3.34
2018-02-15T03:46:24.321Z,-3.49
2018-02-15T03:47:30.454Z,-3.42
2018-02-15T03:48:36.739Z,-3.50
2018-02-15T03:49:42.650Z,-3.47
2018-02-15T03:50:48.843Z,-3.53
2018-02-15T03:51:55.037Z,-3.42
2018-02-15T03:53:01.194Z,-3.33
2018-02-15T03:54:07.394Z,-3.30
2018-02-15T03:55:13.604Z,-3.22
2018-02-15T03:56:19.838Z,-3.26
2018-02-15T03:57:26.002Z,-3.24
2018-02-15T03:58:32.188Z,-3.18
2018-02-15T03:59:38.464Z,-3.17
2018-02-15T04:00:44.682Z,-3.09
2018-02-15T04:01:50.916Z,-3.10
2018-02-15T04:02:57.162Z,-3.07
2018-02-15T04:04:03.325Z,-3.16
2018-02-15T04:05:09.601Z,-3.10
2018-02-15T04:06:19.862Z,-3.09
2018-02-15T04:07:26.077Z,-2.98
2018-02-15T04:08:36.877Z,-3.00
2018-02-15T04:09:43.144Z,-2.98
2018-02-15T04:10:49.352Z,-2.94
2018-02-15T04:11:55.572Z,-2.93
2018-02-15T04:13:01.726Z,-2.91
2018-02-15T04:14:07.873Z,-2.97
2018-02-15T04:15:13.574Z,-2.93
2018-02-15T04:16:19.798Z,-2.85
2018-02-15T04:17:26.055Z,-2.81
2018-02-15T04:18:32.295Z,-2.85
2018-02-15T04:19:38.240Z,-2.82
2018-02-15T04:20:44.432Z,-2.83
2018-02-15T04:21:50.605Z,-2.87
2018-02-15T04:22:57.024Z,-2.86
2018-02-15T04:24:03.292Z,-2.83
2018-02-15T04:25:09.489Z,-2.82
2018-02-15T04:26:15.718Z,-2.81
2018-02-15T04:27:21.970Z,-2.81
2018-02-15T04:28:28.425Z,-2.79
2018-02-15T04:29:34.691Z,-2.78
2018-02-15T04:30:40.929Z,-2.80
2018-02-15T04:31:47.168Z,-2.74
2018-02-15T04:32:53.546Z,-2.72
2018-02-15T04:33:59.816Z,-2.72
2018-02-15T04:35:05.988Z,-2.69
2018-02-15T04:36:12.131Z,-2.66
2018-02-15T04:37:18.279Z,-2.64
2018-02-15T04:38:24.440Z,-2.66
2018-02-15T04:39:30.700Z,-2.66
2018-02-15T04:40:39.899Z,-2.60
2018-02-15T04:41:46.344Z,-2.67
2018-02-15T04:42:52.581Z,-2.64
2018-02-15T04:43:59.360Z,-2.67
2018-02-15T04:45:05.633Z,-2.62
2018-02-15T04:46:12.057Z,-2.64
2018-02-15T04:47:18.428Z,-2.62
2018-02-15T04:48:26.218Z,-2.57
2018-02-15T04:49:32.475Z,-2.57
2018-02-15T04:50:39.834Z,-2.53
2018-02-15T04:51:47.259Z,-2.55
2018-02-15T04:52:55.036Z,-2.57
2018-02-15T04:54:01.846Z,-2.58
2018-02-15T04:55:09.370Z,-2.54
2018-02-15T04:56:16.814Z,-2.55
2018-02-15T04:57:23.935Z,-2.59
2018-02-15T04:58:31.734Z,-2.60
2018-02-15T04:59:40.987Z,-2.57
2018-02-15T05:00:51.827Z,-2.60
2018-02-15T05:02:00.930Z,-2.65
2018-02-15T05:03:09.788Z,-2.65
2018-02-15T05:04:17.077Z,-2.63
2018-02-15T05:05:24.218Z,-2.62
2018-02-15T05:06:32.877Z,-2.63
2018-02-15T05:07:40.193Z,-2.57
2018-02-15T05:08:49.117Z,-2.62
2018-02-15T05:09:56.978Z,-2.69
2018-02-15T05:11:06.503Z,-2.66
2018-02-15T05:12:14.339Z,-2.65
2018-02-15T05:13:22.083Z,-2.61
2018-02-15T05:14:31.206Z,-2.56
2018-02-15T05:15:38.002Z,-2.58
2018-02-15T05:16:44.256Z,-2.57
2018-02-15T05:17:50.459Z,-2.53
2018-02-15T05:18:56.690Z,-2.54
2018-02-15T05:20:02.980Z,-2.51
2018-02-15T05:21:08.946Z,-2.50
2018-02-15T05:22:15.182Z,-2.47
2018-02-15T05:23:21.356Z,-2.46
2018-02-15T05:24:27.649Z,-2.47
2018-02-15T05:25:33.915Z,-2.47
2018-02-15T05:26:40.168Z,-2.44
2018-02-15T05:27:46.437Z,-2.43
2018-02-15T05:28:52.382Z,-2.46
2018-02-15T05:29:58.557Z,-2.41
2018-02-15T05:31:04.735Z,-2.40
2018-02-15T05:32:10.962Z,-2.37
2018-02-15T05:33:17.229Z,-2.39
2018-02-15T05:34:23.417Z,-2.39
2018-02-15T05:35:29.544Z,-2.39
2018-02-15T05:36:35.687Z,-2.36
2018-02-15T05:37:41.928Z,-2.34
2018-02-15T05:38:48.140Z,-2.32
2018-02-15T05:39:54.309Z,-2.30
2018-02-15T05:41:00.537Z,-2.38
2018-02-15T05:42:06.855Z,-2.35
2018-02-15T05:43:13.072Z,-2.33
2018-02-15T05:44:19.344Z,-2.37
2018-02-15T05:45:25.230Z,-2.36
2018-02-15T05:46:31.383Z,-2.37
2018-02-15T05:47:37.349Z,-2.30
2018-02-15T05:48:43.618Z,-2.28
2018-02-15T05:49:49.835Z,-2.28
2018-02-15T05:50:56.020Z,-2.26
2018-02-15T05:52:02.398Z,-2.31
2018-02-15T05:53:08.649Z,-2.29
2018-02-15T05:54:14.876Z,-2.32
2018-02-15T05:55:21.090Z,-2.32
2018-02-15T05:56:27.387Z,-2.32
2018-02-15T05:57:39.704Z,-2.32
2018-02-15T05:58:45.912Z,-2.29
2018-02-15T05:59:52.246Z,-2.32
2018-02-15T06:00:58.419Z,-2.25
2018-02-15T06:02:04.650Z,-2.22
2018-02-15T06:03:13.322Z,-2.23
2018-02-15T06:04:19.532Z,-2.27
2018-02-15T06:05:25.667Z,-2.24
2018-02-15T06:06:31.842Z,-2.25
2018-02-15T06:07:37.998Z,-2.24
2018-02-15T06:08:44.287Z,-2.21
2018-02-15T06:09:50.491Z,-2.23
2018-02-15T06:10:56.733Z,-2.19
2018-02-15T06:12:02.941Z,-2.19
2018-02-15T06:13:09.193Z,-2.19
2018-02-15T06:14:14.991Z,-2.18
2018-02-15T06:15:21.310Z,-2.16
2018-02-15T06:16:27.173Z,-2.14
2018-02-15T06:17:33.356Z,-2.16
2018-02-15T06:18:39.585Z,-2.15
2018-02-15T06:19:45.784Z,-2.12
2018-02-15T06:20:52.004Z,-2.13
2018-02-15T06:21:58.220Z,-2.08
2018-02-15T06:23:04.522Z,-2.11
2018-02-15T06:24:10.654Z,-2.13
2018-02-15T06:25:16.821Z,-2.09
2018-02-15T06:26:23.043Z,-2.07
2018-02-15T06:27:29.246Z,-2.08
2018-02-15T06:28:35.414Z,-2.10
2018-02-15T06:29:41.680Z,-2.08
2018-02-15T06:30:57.464Z,-2.08
2018-02-15T06:32:03.663Z,-2.10
2018-02-15T06:33:09.857Z,-2.07
2018-02-15T06:34:16.035Z,-2.04
2018-02-15T06:35:22.194Z,-2.09
2018-02-15T06:36:28.376Z,-2.06
2018-02-15T06:37:34.531Z,-2.03
2018-02-15T06:38:40.939Z,-2.01
2018-02-15T06:39:47.093Z,-2.01
2018-02-15T06:40:53.269Z,-2.00
2018-02-15T06:41:59.445Z,-2.00
2018-02-15T06:43:05.652Z,-2.00
2018-02-15T06:44:11.857Z,-1.95
2018-02-15T06:45:18.076Z,-1.89
2018-02-15T06:46:24.232Z,-1.87
2018-02-15T06:47:30.461Z,-1.88
2018-02-15T06:48:36.624Z,-1.88
2018-02-15T06:49:42.884Z,-1.81
2018-02-15T06:50:49.329Z,-1.73
2018-02-15T06:52:01.333Z,-1.75
2018-02-15T06:53:07.551Z,-1.71
2018-02-15T06:54:13.717Z,-1.72
2018-02-15T06:55:19.855Z,-1.72
2018-02-15T06:56:31.072Z,-1.72
2018-02-15T06:57:38.189Z,-1.86
2018-02-15T06:58:49.808Z,-1.88
2018-02-15T06:59:57.172Z,-1.88
2018-02-15T07:01:04.749Z,-1.86
2018-02-15T07:02:16.220Z,-1.86
2018-02-15T07:03:27.845Z,-1.83
2018-02-15T07:04:35.085Z,-1.83
2018-02-15T07:05:43.356Z,-1.90
2018-02-15T07:06:51.093Z,-1.91
2018-02-15T07:07:58.216Z,-1.92
2018-02-15T07:09:06.001Z,-1.93
2018-02-15T07:10:13.819Z,-1.92
2018-02-15T07:11:22.946Z,-1.95
2018-02-15T07:12:31.543Z,-1.98
2018-02-15T07:13:39.677Z,-1.93
2018-02-15T07:14:46.869Z,-1.95
2018-02-15T07:15:54.090Z,-1.90
2018-02-15T07:17:03.458Z,-1.86
2018-02-15T07:18:12.004Z,-1.88
2018-02-15T07:19:20.841Z,-1.89
2018-02-15T07:20:28.866Z,-1.91
2018-02-15T07:21:36.157Z,-1.90
2018-02-15T07:22:47.169Z,-1.85
2018-02-15T07:23:56.695Z,-1.81
2018-02-15T07:25:03.737Z,-1.85
2018-02-15T07:26:11.352Z,-1.84
2018-02-15T07:27:19.091Z,-1.78
2018-02-15T07:28:26.790Z,-1.83
2018-02-15T07:29:34.035Z,-1.85
2018-02-15T07:30:42.440Z,-1.85
2018-02-15T07:31:51.314Z,-1.84
2018-02-15T07:32:59.561Z,-1.84
2018-02-15T07:34:08.752Z,-1.82
2018-02-15T07:35:15.984Z,-1.81
2018-02-15T07:36:24.015Z,-1.86
2018-02-15T07:37:32.398Z,-1.83
2018-02-15T07:38:39.498Z,-1.84
2018-02-15T07:39:46.541Z,-1.80
2018-02-15T07:40:55.302Z,-1.80
2018-02-15T07:42:02.546Z,-1.81
2018-02-15T07:43:09.915Z,-1.81
2018-02-15T07:44:17.380Z,-1.75
2018-02-15T07:45:24.485Z,-1.71
2018-02-15T07:46:31.258Z,-1.70
2018-02-15T07:47:37.256Z,-1.64
2018-02-15T07:48:43.273Z,-1.60
2018-02-15T07:49:49.328Z,-1.54
2018-02-15T07:50:55.312Z,-1.52
2018-02-15T07:52:01.396Z,-1.46
2018-02-15T07:53:10.699Z,-1.43
2018-02-15T07:54:16.691Z,-1.33
2018-02-15T07:55:22.681Z,-1.35
2018-02-15T07:56:28.620Z,-1.25
2018-02-15T07:57:34.557Z,-1.19
2018-02-15T07:58:40.579Z,-1.16
2018-02-15T07:59:46.692Z,-1.09
2018-02-15T08:00:52.907Z,-1.06
2018-02-15T08:01:59.157Z,-0.97
2018-02-15T08:03:05.334Z,-0.93
2018-02-15T08:04:11.528Z,-0.92
2018-02-15T08:05:17.718Z,-0.88
2018-02-15T08:06:26.741Z,-0.77
2018-02-15T08:07:32.924Z,-0.81
2018-02-15T08:08:39.147Z,-0.75
2018-02-15T08:09:45.349Z,-0.63
2018-02-15T08:10:51.523Z,-0.72
2018-02-15T08:11:57.724Z,-0.77
2018-02-15T08:13:03.892Z,-0.80
2018-02-15T08:14:10.118Z,-0.78
2018-02-15T08:15:16.335Z,-0.74
2018-02-15T08:16:22.510Z,-0.73
2018-02-15T08:17:28.672Z,-0.74
2018-02-15T08:18:34.857Z,-0.69
2018-02-15T08:19:40.870Z,-0.64
2018-02-15T08:20:47.099Z,-0.64
2018-02-15T08:21:53.337Z,-0.68
2018-02-15T08:22:59.523Z,-0.68
2018-02-15T08:24:05.689Z,-0.64
2018-02-15T08:25:11.602Z,-0.66
2018-02-15T08:26:17.756Z,-0.63
2018-02-15T08:27:23.929Z,-0.63
2018-02-15T08:28:30.167Z,-0.57
2018-02-15T08:29:36.348Z,-0.53
2018-02-15T08:30:47.560Z,-0.51
2018-02-15T08:31:53.756Z,-0.49
2018-02-15T08:32:59.950Z,-0.51
2018-02-15T08:34:06.138Z,-0.50
2018-02-15T08:35:12.276Z,-0.42
2018-02-15T08:36:18.467Z,-0.39
2018-02-15T08:37:24.624Z,-0.32
2018-02-15T08:38:30.802Z,-0.32
2018-02-15T08:39:36.990Z,-0.34
2018-02-15T08:40:43.163Z,-0.37
2018-02-15T08:41:49.383Z,-0.31
2018-02-15T08:42:55.574Z,-0.28
2018-02-15T08:44:01.761Z,-0.28
2018-02-15T08:45:07.919Z,-0.28
2018-02-15T08:46:14.221Z,-0.33
2018-02-15T08:47:20.387Z,-0.32
2018-02-15T08:48:26.638Z,-0.33
2018-02-15T08:49:32.771Z,-0.28
2018-02-15T08:50:38.995Z,-0.29
2018-02-15T08:51:45.181Z,-0.28
2018-02-15T08:52:51.333Z,-0.30
2018-02-15T08:53:57.539Z,-0.26
2018-02-15T08:55:03.732Z,-0.23
2018-02-15T08:56:09.938Z,-0.17
2018-02-15T08:57:16.074Z,-0.12
2018-02-15T08:58:22.263Z,-0.10
2018-02-15T08:59:28.415Z,-0.06
2018-02-15T09:00:34.649Z,0.01
2018-02-15T09:01:40.855Z,-0.06
2018-02-15T09:02:46.829Z,0.03
2018-02-15T09:03:53.423Z,-0.09
2018-02-15T09:04:59.620Z,-0.02
2018-02-15T09:06:05.778Z,0.05
2018-02-15T09:07:11.883Z,0.02
2018-02-15T09:08:18.024Z,-0.01
2018-02-15T09:09:23.939Z,0.02
2018-02-15T09:10:30.672Z,0.03
2018-02-15T09:11:36.820Z,0.10
2018-02-15T09:12:43.081Z,0.10
2018-02-15T09:13:49.259Z,0.19
2018-02-15T09:14:55.395Z,0.24
2018-02-15T09:16:01.589Z,0.21
2018-02-15T09:17:07.750Z,0.21
2018-02-15T09:18:13.928Z,0.25
2018-02-15T09:19:20.072Z,0.30
2018-02-15T09:20:31.471Z,0.34
2018-02-15T09:21:37.640Z,0.29
2018-02-15T09:22:43.851Z,0.38
2018-02-15T09:23:50.004Z,0.37
2018-02-15T09:24:56.181Z,0.43
2018-02-15T09:26:02.379Z,0.33
2018-02-15T09:27:08.621Z,0.33
2018-02-15T09:28:17.762Z,0.45
2018-02-15T09:29:23.958Z,0.38
2018-02-15T09:30:30.144Z,0.36
2018-02-15T09:31:36.294Z,0.43
2018-02-15T09:32:42.463Z,0.51
2018-02-15T09:33:48.650Z,0.57
2018-02-15T09:34:54.918Z,0.63
2018-02-15T09:36:01.132Z,0.58
2018-02-15T09:37:07.022Z,0.46
2018-02-15T09:38:13.172Z,0.40
2018-02-15T09:39:19.448Z,0.40
2018-02-15T09:40:25.589Z,0.40
2018-02-15T09:41:40.181Z,0.44
2018-02-15T09:42:46.735Z,0.49
2018-02-15T09:43:52.934Z,0.57
2018-02-15T09:44:59.138Z,0.59
2018-02-15T09:46:05.366Z,0.68
2018-02-15T09:47:11.492Z,0.72
2018-02-15T09:48:17.395Z,0.71
2018-02-15T09:49:23.317Z,0.76
2018-02-15T09:50:31.500Z,0.71
2018-02-15T09:51:37.645Z,0.74
2018-02-15T09:52:43.772Z,0.68
2018-02-15T09:53:49.662Z,0.70
2018-02-15T09:54:55.781Z,0.71
2018-02-15T09:56:02.014Z,0.68
2018-02-15T09:57:08.946Z,0.73
2018-02-15T09:58:15.116Z,0.88
2018-02-15T09:59:21.299Z,0.97
2018-02-15T10:00:27.454Z,0.87
2018-02-15T10:01:33.610Z,0.91
2018-02-15T10:02:39.739Z,0.91
2018-02-15T10:03:45.978Z,0.97
2018-02-15T10:04:52.141Z,1.03
2018-02-15T10:05:58.326Z,1.02
2018-02-15T10:07:04.466Z,1.09
2018-02-15T10:08:10.691Z,1.26
2018-02-15T10:09:16.832Z,1.32
2018-02-15T10:10:23.038Z,1.31
2018-02-15T10:11:28.966Z,1.16
2018-02-15T10:12:35.188Z,1.18
2018-02-15T10:13:41.605Z,1.22
2018-02-15T10:14:47.832Z,1.20
2018-02-15T10:15:53.774Z,1.34
2018-02-15T10:16:59.761Z,1.46
2018-02-15T10:18:06.057Z,1.53
2018-02-15T10:19:12.214Z,1.49
2018-02-15T10:20:18.763Z,1.46
2018-02-15T10:21:24.960Z,1.49
2018-02-15T10:22:31.108Z,1.45
2018-02-15T10:23:37.291Z,1.42
2018-02-15T10:24:43.460Z,1.32
2018-02-15T10:25:49.643Z,1.35
2018-02-15T10:26:55.797Z,1.29
2018-02-15T10:28:01.977Z,1.25
2018-02-15T10:29:08.157Z,1.26
2018-02-15T10:30:14.291Z,1.26
2018-02-15T10:31:20.881Z,1.25
2018-02-15T10:32:26.833Z,1.18
2018-02-15T10:33:32.995Z,1.24
2018-02-15T10:34:39.116Z,1.21
2018-02-15T10:35:45.247Z,1.19
2018-02-15T10:36:51.435Z,1.20
2018-02-15T10:37:57.591Z,1.21
2018-02-15T10:39:03.228Z,1.22
2018-02-15T10:40:09.075Z,1.35
2018-02-15T10:41:15.255Z,1.42
2018-02-15T10:42:21.439Z,1.43
2018-02-15T10:43:27.632Z,1.37
2018-02-15T10:44:33.808Z,1.38
2018-02-15T10:45:39.911Z,1.29
2018-02-15T10:46:46.107Z,1.27
2018-02-15T10:47:53.136Z,1.21
2018-02-15T10:48:59.500Z,1.23
2018-02-15T10:50:05.660Z,1.27
2018-02-15T10:51:11.860Z,1.37
2018-02-15T10:52:18.101Z,1.37
2018-02-15T10:53:24.276Z,1.28
2018-02-15T10:54:30.452Z,1.34
2018-02-15T10:55:36.656Z,1.35
2018-02-15T10:56:42.820Z,1.46
2018-02-15T10:57:48.929Z,1.38
2018-02-15T10:58:54.690Z,1.38
2018-02-15T11:00:00.712Z,1.43
2018-02-15T11:01:12.039Z,1.44
2018-02-15T11:02:23.124Z,1.48
2018-02-15T11:03:30.063Z,1.56
2018-02-15T11:04:36.100Z,1.54
2018-02-15T11:05:42.304Z,1.59
2018-02-15T11:06:48.556Z,1.57
2018-02-15T11:07:54.751Z,1.47
2018-02-15T11:09:01.001Z,1.58
2018-02-15T11:10:07.220Z,1.54
2018-02-15T11:11:13.631Z,1.59
2018-02-15T11:12:19.891Z,1.52
2018-02-15T11:13:26.278Z,1.61
2018-02-15T11:14:32.487Z,1.66
2018-02-15T11:15:39.317Z,1.56
2018-02-15T11:16:45.985Z,1.55
2018-02-15T11:17:52.404Z,1.54
2018-02-15T11:18:59.884Z,1.63
2018-02-15T11:20:06.366Z,1.68
2018-02-15T11:21:12.918Z,1.64
2018-02-15T11:22:21.581Z,1.65
2018-02-15T11:23:29.286Z,1.68
2018-02-15T11:24:37.823Z,1.67
2018-02-15T11:25:45.699Z,1.71
2018-02-15T11:26:52.868Z,1.72
2018-02-15T11:28:00.450Z,1.76
2018-02-15T11:29:08.515Z,1.82
2018-02-15T11:30:15.861Z,1.90
2018-02-15T11:31:23.434Z,1.97
2018-02-15T11:32:31.712Z,2.01
2018-02-15T11:33:38.572Z,2.05
2018-02-15T11:34:45.471Z,2.06
2018-02-15T11:35:52.387Z,1.99
2018-02-15T11:37:02.244Z,1.97
2018-02-15T11:38:09.654Z,1.97
2018-02-15T11:39:17.449Z,1.94
2018-02-15T11:40:24.125Z,1.91
2018-02-15T11:41:30.803Z,1.97
2018-02-15T11:42:38.779Z,1.95
2018-02-15T11:43:46.672Z,2.00
2018-02-15T11:44:53.726Z,2.16
2018-02-15T11:46:01.000Z,2.19
2018-02-15T11:47:08.127Z,2.15
2018-02-15T11:48:16.096Z,2.10
2018-02-15T11:49:23.870Z,2.09
2018-02-15T11:50:31.426Z,2.16
2018-02-15T11:51:40.287Z,2.16
2018-02-15T11:52:47.301Z,2.19
2018-02-15T11:53:55.278Z,2.29
2018-02-15T11:55:02.298Z,2.34
2018-02-15T11:56:09.879Z,2.24
2018-02-15T11:57:17.772Z,2.23
2018-02-15T11:58:25.183Z,2.28
2018-02-15T11:59:32.813Z,2.19
2018-02-15T12:00:40.406Z,2.19
2018-02-15T12:01:47.938Z,2.22
2018-02-15T12:02:55.400Z,2.24
2018-02-15T12:04:02.023Z,2.21
2018-02-15T12:05:09.612Z,2.20
2018-02-15T12:06:17.418Z,2.26
2018-02-15T12:07:25.783Z,2.37
2018-02-15T12:08:34.071Z,2.29
2018-02-15T12:09:42.447Z,2.31
2018-02-15T12:10:51.358Z,2.36
2018-02-15T12:11:58.348Z,2.36
2018-02-15T12:13:06.701Z,2.30
2018-02-15T12:14:25.076Z,2.37
2018-02-15T12:15:33.379Z,2.37
2018-02-15T12:16:41.074Z,2.38
2018-02-15T12:18:54.831Z,2.43
2018-02-15T12:20:01.625Z,2.50
2018-02-15T12:21:09.009Z,2.59
2018-02-15T12:22:17.499Z,2.60
2018-02-15T12:23:29.547Z,2.48
2018-02-15T12:24:37.803Z,2.42
2018-02-15T12:25:45.114Z,2.43
2018-02-15T12:26:52.834Z,2.47
2018-02-15T12:28:02.013Z,2.46
2018-02-15T12:29:09.862Z,2.56
2018-02-15T12:30:21.218Z,2.59
2018-02-15T12:31:34.774Z,2.58
2018-02-15T12:32:44.680Z,2.63
2018-02-15T12:33:53.503Z,2.57
2018-02-15T12:35:01.667Z,2.58
2018-02-15T12:36:09.627Z,2.53
2018-02-15T12:37:16.279Z,2.59
2018-02-15T12:38:23.432Z,2.60
2018-02-15T12:39:31.190Z,2.61
2018-02-15T12:40:39.199Z,2.62
2018-02-15T12:41:47.089Z,2.64
2018-02-15T12:42:55.198Z,2.60
2018-02-15T12:44:02.189Z,2.60
2018-02-15T12:45:10.163Z,2.65
2018-02-15T12:46:18.515Z,2.71
2018-02-15T12:47:26.354Z,2.77
2018-02-15T12:48:34.029Z,2.77
2018-02-15T12:49:40.820Z,2.77
2018-02-15T12:50:47.986Z,2.79
2018-02-15T12:51:57.106Z,2.83
2018-02-15T12:53:05.092Z,2.86
2018-02-15T12:54:14.462Z,2.83
2018-02-15T12:55:21.741Z,2.90
2018-02-15T12:56:29.415Z,2.85
2018-02-15T12:57:37.607Z,2.90
2018-02-15T12:58:45.281Z,2.88
2018-02-15T12:59:52.839Z,2.98
2018-02-15T13:01:00.263Z,2.97
2018-02-15T13:02:07.324Z,2.90
2018-02-15T13:03:15.392Z,2.86
2018-02-15T13:04:22.940Z,2.86
2018-02-15T13:05:30.613Z,2.87
2018-02-15T13:06:37.787Z,2.91
2018-02-15T13:07:46.176Z,2.94
2018-02-15T13:08:55.054Z,2.91
2018-02-15T13:10:02.664Z,2.88
2018-02-15T13:11:10.124Z,2.91
2018-02-15T13:12:30.064Z,2.86
2018-02-15T13:13:36.913Z,2.90
2018-02-15T13:14:44.805Z,2.92
2018-02-15T13:16:12.210Z,2.90
2018-02-15T13:17:19.172Z,2.90
2018-02-15T13:18:26.306Z,2.89
2018-02-15T13:19:49.815Z,2.89
2018-02-15T13:20:57.644Z,2.85
2018-02-15T13:23:47.828Z,2.94
2018-02-15T13:24:55.063Z,2.92
2018-02-15T13:26:04.005Z,2.92
2018-02-15T13:27:11.913Z,2.88
2018-02-15T13:28:30.224Z,2.94
2018-02-15T13:29:38.406Z,2.89
2018-02-15T13:30:45.612Z,2.93
2018-02-15T13:31:52.938Z,2.92
2018-02-15T13:33:01.443Z,2.96
2018-02-15T13:34:10.089Z,3.02
2018-02-15T13:35:18.746Z,2.97
2018-02-15T13:36:25.532Z,2.93
2018-02-15T13:37:32.998Z,2.85
2018-02-15T13:38:41.534Z,2.88
2018-02-15T13:39:48.783Z,2.83
2018-02-15T13:40:56.013Z,2.80
2018-02-15T13:42:03.716Z,2.79
2018-02-15T13:43:10.904Z,2.75
2018-02-15T13:44:18.229Z,2.82
2018-02-15T13:45:25.179Z,2.86
2018-02-15T13:46:32.066Z,2.77
2018-02-15T13:47:40.462Z,2.81
2018-02-15T13:48:47.569Z,2.76
2018-02-15T13:49:55.504Z,2.75
2018-02-15T13:51:03.753Z,2.75
2018-02-15T13:52:11.626Z,2.78
2018-02-15T13:53:18.453Z,2.83
2018-02-15T13:54:30.208Z,2.80
2018-02-15T13:55:38.474Z,2.79
2018-02-15T13:56:46.352Z,2.77
2018-02-15T13:57:53.182Z,2.75
2018-02-15T13:59:00.114Z,2.74
2018-02-15T14:00:06.966Z,2.71
2018-02-15T14:01:14.300Z,2.77
2018-02-15T14:02:21.417Z,2.81
2018-02-15T14:03:28.495Z,2.88
2018-02-15T14:04:36.029Z,2.86
2018-02-15T14:05:44.436Z,2.80
2018-02-15T14:06:51.577Z,2.77
2018-02-15T14:08:01.023Z,2.82
2018-02-15T14:09:08.715Z,2.89
2018-02-15T14:10:19.484Z,2.82
2018-02-15T14:11:27.766Z,2.79
2018-02-15T14:12:35.549Z,2.73
2018-02-15T14:13:43.969Z,2.74
2018-02-15T14:14:51.607Z,2.82
2018-02-15T14:15:58.843Z,2.77
2018-02-15T14:17:07.428Z,2.79
2018-02-15T14:18:14.394Z,2.87
2018-02-15T14:19:21.585Z,2.84
2018-02-15T14:20:28.874Z,2.85
2018-02-15T14:21:36.574Z,2.85
2018-02-15T14:22:44.736Z,2.86
2018-02-15T14:23:51.814Z,2.82
2018-02-15T14:24:58.869Z,2.80
2018-02-15T14:26:05.929Z,2.78
2018-02-15T14:27:13.572Z,2.77
2018-02-15T14:28:22.721Z,2.82
2018-02-15T14:29:30.086Z,2.91
2018-02-15T14:30:37.397Z,2.91
2018-02-15T14:31:45.980Z,2.89
2018-02-15T14:32:53.458Z,2.91
2018-02-15T14:34:00.729Z,3.04
2018-02-15T14:35:07.860Z,3.07
2018-02-15T14:36:14.991Z,3.08